METAR Data
IDs: Format: Raw Decoded Include TAF

Data at: 0522 UTC 24 Sep 2018

KMHR 240245Z 22007KT 10SM SKC 24/03 A2979
KMHR 240145Z 22005KT 10SM SKC 27/06 A2978
KMHR 240045Z 23005KT 10SM SKC 31/06 A2978
KMHR 232355Z 22006KT 10SM SKC 31/07 A2978
KMHR 232245Z 21003KT 10SM SKC 31/06 A2980
KMHR 231955Z 27005KT 10SM SKC 29/07 A2985
KMHR 231855Z 18006KT 10SM SKC 27/08 A2987
KMHR 231645Z 18006KT 10SM SKC 21/06 A2989
KMHR 231545Z 23005KT 10SM SKC 19/09 A2987
KMHR 231445Z 11005KT 10SM FEW200 14/07 A2985
KMHR 231345Z 13007KT 10SM SCT200 11/05 A2984
KMHR 231245Z 13004KT 10SM SCT200 13/07 A2984
KMHR 231159Z 13007KT 10SM SCT200 13/07 A2983
KMHR 230245Z 20007KT 10SM SKC 25/05 A2984
KMHR 230200Z 18006KT 10SM SKC 27/08 A2983
KMHR 222355Z 22005KT 10SM SKC 32/02 A2985
KMHR 222245Z 22005KT 10SM SKC 32/03 A2987
KMHR 222155Z 22005KT 10SM SCT250 32/02 A2988
KMHR 222045Z 27007KT 10SM SCT250 31/06 A2991
KMHR 221945Z 26004KT 10SM SKC 29/08 A2992
KMHR 221845Z 21003KT 10SM SKC 26/07 A2994
KMHR 221745Z 22004KT 10SM SKC 24/07 A2994